sensor_id;sensor_type;location;lat;lon;timestamp;pressure;altitude;pressure_sealevel;temperature;humidity
41654;BME280;68687;52.030;7.110;2024-03-22T00:02:14;101319.47;;;9.62;100.00
41654;BME280;68687;52.030;7.110;2024-03-22T00:04:39;101308.50;;;9.55;100.00
41654;BME280;68687;52.030;7.110;2024-03-22T00:07:04;101308.91;;;9.69;100.00
41654;BME280;68687;52.030;7.110;2024-03-22T00:09:30;101307.91;;;9.70;100.00
41654;BME280;68687;52.030;7.110;2024-03-22T00:11:55;101300.56;;;9.72;100.00
41654;BME280;68687;52.030;7.110;2024-03-22T00:14:21;101301.56;;;9.71;100.00
41654;BME280;68687;52.030;7.110;2024-03-22T00:16:46;101297.53;;;9.75;100.00
41654;BME280;68687;52.030;7.110;2024-03-22T00:19:12;101289.00;;;9.71;100.00
41654;BME280;68687;52.030;7.110;2024-03-22T00:21:37;101288.50;;;9.76;100.00
41654;BME280;68687;52.030;7.110;2024-03-22T00:24:02;101295.88;;;9.82;100.00
41654;BME280;68687;52.030;7.110;2024-03-22T00:26:28;101280.47;;;9.84;100.00
41654;BME280;68687;52.030;7.110;2024-03-22T00:28:53;101287.00;;;9.81;100.00
41654;BME280;68687;52.030;7.110;2024-03-22T00:31:18;101279.13;;;9.80;100.00
41654;BME280;68687;52.030;7.110;2024-03-22T00:33:44;101274.94;;;9.85;100.00
41654;BME280;68687;52.030;7.110;2024-03-22T00:36:10;101276.50;;;9.88;100.00
41654;BME280;68687;52.030;7.110;2024-03-22T00:38:35;101261.25;;;9.88;100.00
41654;BME280;68687;52.030;7.110;2024-03-22T00:41:01;101254.72;;;9.91;100.00
41654;BME280;68687;52.030;7.110;2024-03-22T00:43:26;101260.69;;;9.85;100.00
41654;BME280;68687;52.030;7.110;2024-03-22T00:45:52;101260.22;;;9.89;100.00
41654;BME280;68687;52.030;7.110;2024-03-22T00:48:17;101255.88;;;9.88;100.00
41654;BME280;68687;52.030;7.110;2024-03-22T00:50:43;101262.59;;;9.93;100.00
41654;BME280;68687;52.030;7.110;2024-03-22T00:53:08;101253.69;;;9.92;100.00
41654;BME280;68687;52.030;7.110;2024-03-22T00:55:35;101241.81;;;9.95;100.00
41654;BME280;68687;52.030;7.110;2024-03-22T00:58:00;101248.66;;;9.89;100.00
41654;BME280;68687;52.030;7.110;2024-03-22T01:00:26;101246.44;;;9.84;100.00
41654;BME280;68687;52.030;7.110;2024-03-22T01:02:51;101239.25;;;9.85;100.00
41654;BME280;68687;52.030;7.110;2024-03-22T01:05:17;101230.72;;;9.89;100.00
41654;BME280;68687;52.030;7.110;2024-03-22T01:07:42;101223.16;;;9.85;100.00
41654;BME280;68687;52.030;7.110;2024-03-22T01:10:08;101218.13;;;9.82;100.00
41654;BME280;68687;52.030;7.110;2024-03-22T01:12:34;101217.13;;;9.83;100.00
41654;BME280;68687;52.030;7.110;2024-03-22T01:14:59;101216.09;;;9.76;100.00
41654;BME280;68687;52.030;7.110;2024-03-22T01:17:24;101212.25;;;9.78;100.00
41654;BME280;68687;52.030;7.110;2024-03-22T01:19:51;101215.59;;;9.80;100.00
41654;BME280;68687;52.030;7.110;2024-03-22T01:22:17;101210.25;;;9.80;100.00
41654;BME280;68687;52.030;7.110;2024-03-22T01:24:43;101200.34;;;9.81;100.00
41654;BME280;68687;52.030;7.110;2024-03-22T01:27:09;101195.00;;;9.81;100.00
41654;BME280;68687;52.030;7.110;2024-03-22T01:29:34;101195.00;;;9.81;100.00
41654;BME280;68687;52.030;7.110;2024-03-22T01:32:00;101192.16;;;9.82;100.00
41654;BME280;68687;52.030;7.110;2024-03-22T01:34:26;101193.03;;;9.91;100.00
41654;BME280;68687;52.030;7.110;2024-03-22T01:36:52;101195.03;;;9.89;100.00
41654;BME280;68687;52.030;7.110;2024-03-22T01:39:18;101198.03;;;9.86;100.00
41654;BME280;68687;52.030;7.110;2024-03-22T01:41:46;101176.09;;;9.90;100.00
41654;BME280;68687;52.030;7.110;2024-03-22T01:44:12;101170.72;;;9.90;100.00
41654;BME280;68687;52.030;7.110;2024-03-22T01:46:39;101169.72;;;9.91;100.00
41654;BME280;68687;52.030;7.110;2024-03-22T01:49:05;101172.06;;;9.95;100.00
41654;BME280;68687;52.030;7.110;2024-03-22T01:51:30;101164.34;;;10.00;100.00
41654;BME280;68687;52.030;7.110;2024-03-22T01:53:56;101164.53;;;9.98;100.00
41654;BME280;68687;52.030;7.110;2024-03-22T01:56:22;101159.50;;;9.95;100.00
41654;BME280;68687;52.030;7.110;2024-03-22T01:58:48;101163.53;;;9.99;100.00
41654;BME280;68687;52.030;7.110;2024-03-22T02:01:13;101162.84;;;10.05;100.00
41654;BME280;68687;52.030;7.110;2024-03-22T02:03:39;101148.59;;;10.05;100.00
41654;BME280;68687;52.030;7.110;2024-03-22T02:06:04;101155.97;;;10.03;100.00
41654;BME280;68687;52.030;7.110;2024-03-22T02:08:29;101155.63;;;10.06;100.00
41654;BME280;68687;52.030;7.110;2024-03-22T02:10:55;101159.16;;;10.06;100.00
41654;BME280;68687;52.030;7.110;2024-03-22T02:13:20;101153.28;;;10.11;100.00
41654;BME280;68687;52.030;7.110;2024-03-22T02:15:45;101148.75;;;10.11;100.00
41654;BME280;68687;52.030;7.110;2024-03-22T02:18:11;101150.59;;;10.11;100.00
41654;BME280;68687;52.030;7.110;2024-03-22T02:20:36;101149.97;;;10.25;100.00
41654;BME280;68687;52.030;7.110;2024-03-22T02:23:01;101132.03;;;10.26;100.00
41654;BME280;68687;52.030;7.110;2024-03-22T02:25:27;101140.44;;;10.23;100.00
41654;BME280;68687;52.030;7.110;2024-03-22T02:27:52;101124.31;;;10.14;100.00
41654;BME280;68687;52.030;7.110;2024-03-22T02:30:17;101108.53;;;10.11;100.00
41654;BME280;68687;52.030;7.110;2024-03-22T02:32:43;101112.38;;;10.09;100.00
41654;BME280;68687;52.030;7.110;2024-03-22T02:35:08;101106.84;;;10.10;100.00
41654;BME280;68687;52.030;7.110;2024-03-22T02:37:34;101118.25;;;10.04;100.00
41654;BME280;68687;52.030;7.110;2024-03-22T02:39:59;101113.06;;;10.19;100.00
41654;BME280;68687;52.030;7.110;2024-03-22T02:42:25;101110.25;;;10.20;100.00
41654;BME280;68687;52.030;7.110;2024-03-22T02:44:50;101098.16;;;10.16;100.00
41654;BME280;68687;52.030;7.110;2024-03-22T02:47:16;101092.13;;;10.14;100.00
41654;BME280;68687;52.030;7.110;2024-03-22T02:49:41;101107.03;;;10.25;100.00
41654;BME280;68687;52.030;7.110;2024-03-22T02:52:06;101095.13;;;10.28;100.00
41654;BME280;68687;52.030;7.110;2024-03-22T02:54:32;101084.38;;;10.19;100.00
41654;BME280;68687;52.030;7.110;2024-03-22T02:56:57;101072.50;;;10.22;100.00
41654;BME280;68687;52.030;7.110;2024-03-22T02:59:25;101072.50;;;10.22;100.00
41654;BME280;68687;52.030;7.110;2024-03-22T03:01:51;101072.00;;;10.27;100.00
41654;BME280;68687;52.030;7.110;2024-03-22T03:04:17;101066.81;;;10.25;100.00
41654;BME280;68687;52.030;7.110;2024-03-22T03:06:42;101068.13;;;10.29;100.00
41654;BME280;68687;52.030;7.110;2024-03-22T03:09:07;101062.25;;;10.34;100.00
41654;BME280;68687;52.030;7.110;2024-03-22T03:11:34;101055.19;;;10.33;100.00
41654;BME280;68687;52.030;7.110;2024-03-22T03:13:59;101059.91;;;10.31;100.00
41654;BME280;68687;52.030;7.110;2024-03-22T03:16:25;101055.91;;;10.27;100.00
41654;BME280;68687;52.030;7.110;2024-03-22T03:18:50;101050.50;;;10.35;100.00
41654;BME280;68687;52.030;7.110;2024-03-22T03:21:15;101045.13;;;10.43;100.00
41654;BME280;68687;52.030;7.110;2024-03-22T03:23:40;101034.72;;;10.40;100.00
41654;BME280;68687;52.030;7.110;2024-03-22T03:26:06;101033.03;;;10.39;100.00
41654;BME280;68687;52.030;7.110;2024-03-22T03:28:31;101026.66;;;10.40;100.00
41654;BME280;68687;52.030;7.110;2024-03-22T03:30:56;101022.47;;;10.37;100.00
41654;BME280;68687;52.030;7.110;2024-03-22T03:33:22;101011.91;;;10.36;100.00
41654;BME280;68687;52.030;7.110;2024-03-22T03:35:47;101011.09;;;10.35;100.00
41654;BME280;68687;52.030;7.110;2024-03-22T03:38:13;101008.41;;;10.35;100.00
41654;BME280;68687;52.030;7.110;2024-03-22T03:40:38;101004.69;;;10.44;100.00
41654;BME280;68687;52.030;7.110;2024-03-22T03:43:04;101016.06;;;10.55;100.00
41654;BME280;68687;52.030;7.110;2024-03-22T03:45:29;101009.16;;;10.60;100.00
41654;BME280;68687;52.030;7.110;2024-03-22T03:47:54;101009.50;;;10.57;100.00
41654;BME280;68687;52.030;7.110;2024-03-22T03:50:20;100996.06;;;10.57;100.00
41654;BME280;68687;52.030;7.110;2024-03-22T03:52:45;100995.47;;;10.47;100.00
41654;BME280;68687;52.030;7.110;2024-03-22T03:55:10;100986.94;;;10.43;100.00
41654;BME280;68687;52.030;7.110;2024-03-22T03:57:36;100984.69;;;10.55;100.00
41654;BME280;68687;52.030;7.110;2024-03-22T04:00:02;100969.94;;;10.51;100.00
41654;BME280;68687;52.030;7.110;2024-03-22T04:02:27;100982.69;;;10.49;100.00
41654;BME280;68687;52.030;7.110;2024-03-22T04:04:53;100979.84;;;10.50;100.00
41654;BME280;68687;52.030;7.110;2024-03-22T04:07:20;100976.28;;;10.58;100.00
41654;BME280;68687;52.030;7.110;2024-03-22T04:09:45;100970.91;;;10.58;100.00
41654;BME280;68687;52.030;7.110;2024-03-22T04:12:10;100964.88;;;10.56;100.00
41654;BME280;68687;52.030;7.110;2024-03-22T04:14:36;100961.72;;;10.52;100.00
41654;BME280;68687;52.030;7.110;2024-03-22T04:17:01;100948.47;;;10.51;100.00
41654;BME280;68687;52.030;7.110;2024-03-22T04:19:26;100955.69;;;10.50;100.00
41654;BME280;68687;52.030;7.110;2024-03-22T04:21:51;100957.53;;;10.50;100.00
41654;BME280;68687;52.030;7.110;2024-03-22T04:24:17;100946.00;;;10.41;100.00
41654;BME280;68687;52.030;7.110;2024-03-22T04:26:42;100944.47;;;10.39;100.00
41654;BME280;68687;52.030;7.110;2024-03-22T04:29:07;100938.28;;;10.38;100.00
41654;BME280;68687;52.030;7.110;2024-03-22T04:31:33;100943.81;;;10.45;100.00
41654;BME280;68687;52.030;7.110;2024-03-22T04:33:58;100928.06;;;10.42;100.00
41654;BME280;68687;52.030;7.110;2024-03-22T04:36:23;100922.03;;;10.32;100.00
41654;BME280;68687;52.030;7.110;2024-03-22T04:38:49;100926.03;;;10.36;100.00
41654;BME280;68687;52.030;7.110;2024-03-22T04:41:14;100928.72;;;10.44;100.00
41654;BME280;68687;52.030;7.110;2024-03-22T04:43:39;100925.38;;;10.42;100.00
41654;BME280;68687;52.030;7.110;2024-03-22T04:46:04;100910.59;;;10.46;100.00
41654;BME280;68687;52.030;7.110;2024-03-22T04:48:30;100907.59;;;10.41;100.00
41654;BME280;68687;52.030;7.110;2024-03-22T04:50:55;100913.94;;;10.48;100.00
41654;BME280;68687;52.030;7.110;2024-03-22T04:53:20;100915.28;;;10.44;100.00
41654;BME280;68687;52.030;7.110;2024-03-22T04:55:47;100912.44;;;10.45;100.00
41654;BME280;68687;52.030;7.110;2024-03-22T04:58:19;100926.03;;;10.44;100.00
41654;BME280;68687;52.030;7.110;2024-03-22T05:00:46;100922.88;;;10.63;100.00
41654;BME280;68687;52.030;7.110;2024-03-22T05:03:12;100920.84;;;10.65;100.00
41654;BME280;68687;52.030;7.110;2024-03-22T05:05:38;100928.06;;;10.73;100.00
41654;BME280;68687;52.030;7.110;2024-03-22T05:08:05;100924.25;;;10.59;100.00
41654;BME280;68687;52.030;7.110;2024-03-22T05:10:30;100923.50;;;10.73;100.00
41654;BME280;68687;52.030;7.110;2024-03-22T05:12:56;100932.94;;;10.69;100.00
41654;BME280;68687;52.030;7.110;2024-03-22T05:15:22;100928.81;;;10.81;100.00
41654;BME280;68687;52.030;7.110;2024-03-22T05:17:48;100930.56;;;10.74;100.00
41654;BME280;68687;52.030;7.110;2024-03-22T05:20:13;100925.91;;;10.68;100.00
41654;BME280;68687;52.030;7.110;2024-03-22T05:22:39;100915.28;;;10.75;100.00
41654;BME280;68687;52.030;7.110;2024-03-22T05:25:05;100914.75;;;10.79;100.00
41654;BME280;68687;52.030;7.110;2024-03-22T05:27:31;100917.53;;;10.86;100.00
41654;BME280;68687;52.030;7.110;2024-03-22T05:29:57;100907.16;;;10.83;100.00
41654;BME280;68687;52.030;7.110;2024-03-22T05:32:23;100913.47;;;10.90;100.00
41654;BME280;68687;52.030;7.110;2024-03-22T05:34:49;100907.28;;;10.90;100.00
41654;BME280;68687;52.030;7.110;2024-03-22T05:37:14;100913.19;;;10.85;100.00
41654;BME280;68687;52.030;7.110;2024-03-22T05:39:39;100902.34;;;10.78;100.00
41654;BME280;68687;52.030;7.110;2024-03-22T05:42:05;100909.00;;;10.82;100.00
41654;BME280;68687;52.030;7.110;2024-03-22T05:44:31;100908.00;;;10.83;100.00
41654;BME280;68687;52.030;7.110;2024-03-22T05:46:57;100906.25;;;10.91;100.00
41654;BME280;68687;52.030;7.110;2024-03-22T05:49:22;100914.22;;;10.84;100.00
41654;BME280;68687;52.030;7.110;2024-03-22T05:51:48;100912.72;;;10.81;100.00
41654;BME280;68687;52.030;7.110;2024-03-22T05:54:13;100896.44;;;10.83;100.00
41654;BME280;68687;52.030;7.110;2024-03-22T05:56:38;100896.91;;;10.87;100.00
41654;BME280;68687;52.030;7.110;2024-03-22T05:59:04;100893.81;;;10.98;100.00
41654;BME280;68687;52.030;7.110;2024-03-22T06:01:29;100898.53;;;10.96;100.00
41654;BME280;68687;52.030;7.110;2024-03-22T06:03:54;100901.53;;;10.93;100.00
41654;BME280;68687;52.030;7.110;2024-03-22T06:06:20;100894.81;;;10.97;100.00
41654;BME280;68687;52.030;7.110;2024-03-22T06:08:50;100902.53;;;11.00;100.00
41654;BME280;68687;52.030;7.110;2024-03-22T06:11:17;100896.19;;;10.93;100.00
41654;BME280;68687;52.030;7.110;2024-03-22T06:13:43;100898.81;;;11.01;100.00
41654;BME280;68687;52.030;7.110;2024-03-22T06:16:08;100904.66;;;11.04;100.00
41654;BME280;68687;52.030;7.110;2024-03-22T06:18:33;100900.50;;;11.02;100.00
41654;BME280;68687;52.030;7.110;2024-03-22T06:20:59;100911.72;;;11.05;100.00
41654;BME280;68687;52.030;7.110;2024-03-22T06:23:24;100911.09;;;11.18;100.00
41654;BME280;68687;52.030;7.110;2024-03-22T06:25:53;100907.72;;;11.01;100.00
41654;BME280;68687;52.030;7.110;2024-03-22T06:28:18;100906.06;;;11.15;100.00
41654;BME280;68687;52.030;7.110;2024-03-22T06:30:43;100897.56;;;11.11;100.00
41654;BME280;68687;52.030;7.110;2024-03-22T06:33:09;100895.03;;;11.10;100.00
41654;BME280;68687;52.030;7.110;2024-03-22T06:35:34;100897.38;;;11.13;100.00
41654;BME280;68687;52.030;7.110;2024-03-22T06:37:59;100897.59;;;11.26;100.00
41654;BME280;68687;52.030;7.110;2024-03-22T06:40:27;100881.63;;;11.10;100.00
41654;BME280;68687;52.030;7.110;2024-03-22T06:42:53;100879.56;;;11.12;100.00
41654;BME280;68687;52.030;7.110;2024-03-22T06:45:18;100887.78;;;11.33;100.00
41654;BME280;68687;52.030;7.110;2024-03-22T06:47:43;100892.34;;;11.33;100.00
41654;BME280;68687;52.030;7.110;2024-03-22T06:50:10;100900.59;;;11.31;100.00
41654;BME280;68687;52.030;7.110;2024-03-22T06:52:36;100898.53;;;11.33;100.00
41654;BME280;68687;52.030;7.110;2024-03-22T06:55:01;100897.00;;;11.16;100.00
41654;BME280;68687;52.030;7.110;2024-03-22T06:57:27;100898.38;;;11.35;100.00
41654;BME280;68687;52.030;7.110;2024-03-22T06:59:52;100898.63;;;11.25;100.00
41654;BME280;68687;52.030;7.110;2024-03-22T07:02:17;100884.91;;;11.35;100.00
41654;BME280;68687;52.030;7.110;2024-03-22T07:04:43;100879.09;;;11.46;100.00
41654;BME280;68687;52.030;7.110;2024-03-22T07:07:09;100878.16;;;11.39;100.00
41654;BME280;68687;52.030;7.110;2024-03-22T07:09:34;100868.66;;;11.51;100.00
41654;BME280;68687;52.030;7.110;2024-03-22T07:12:01;100879.28;;;11.44;100.00
41654;BME280;68687;52.030;7.110;2024-03-22T07:14:26;100875.75;;;11.29;100.00
41654;BME280;68687;52.030;7.110;2024-03-22T07:16:51;100865.13;;;11.13;100.00
41654;BME280;68687;52.030;7.110;2024-03-22T07:19:22;100873.53;;;11.33;100.00
41654;BME280;68687;52.030;7.110;2024-03-22T07:21:47;100873.75;;;11.61;100.00
41654;BME280;68687;52.030;7.110;2024-03-22T07:24:13;100875.03;;;11.65;100.00
41654;BME280;68687;52.030;7.110;2024-03-22T07:26:38;100879.25;;;11.30;100.00
41654;BME280;68687;52.030;7.110;2024-03-22T07:29:04;100888.94;;;11.54;100.00
41654;BME280;68687;52.030;7.110;2024-03-22T07:31:29;100887.81;;;11.48;100.00
41654;BME280;68687;52.030;7.110;2024-03-22T07:33:55;100867.03;;;11.27;100.00
41654;BME280;68687;52.030;7.110;2024-03-22T07:36:21;100874.94;;;11.58;100.00
41654;BME280;68687;52.030;7.110;2024-03-22T07:38:47;100878.47;;;11.59;100.00
41654;BME280;68687;52.030;7.110;2024-03-22T07:41:14;100871.25;;;11.59;100.00
41654;BME280;68687;52.030;7.110;2024-03-22T07:43:39;100871.97;;;11.68;100.00
41654;BME280;68687;52.030;7.110;2024-03-22T07:46:04;100869.66;;;11.65;100.00
41654;BME280;68687;52.030;7.110;2024-03-22T07:48:30;100867.72;;;11.59;100.00
41654;BME280;68687;52.030;7.110;2024-03-22T07:50:57;100881.44;;;11.64;100.00
41654;BME280;68687;52.030;7.110;2024-03-22T07:53:22;100868.97;;;11.86;100.00
41654;BME280;68687;52.030;7.110;2024-03-22T07:55:47;100863.53;;;11.71;100.00
41654;BME280;68687;52.030;7.110;2024-03-22T07:58:13;100867.53;;;11.75;100.00
41654;BME280;68687;52.030;7.110;2024-03-22T08:00:38;100881.31;;;11.80;100.00
41654;BME280;68687;52.030;7.110;2024-03-22T08:03:04;100873.38;;;11.64;100.00
41654;BME280;68687;52.030;7.110;2024-03-22T08:05:29;100863.63;;;11.77;100.00
41654;BME280;68687;52.030;7.110;2024-03-22T08:07:54;100865.44;;;11.85;100.00
41654;BME280;68687;52.030;7.110;2024-03-22T08:10:20;100866.50;;;11.76;100.00
41654;BME280;68687;52.030;7.110;2024-03-22T08:12:45;100872.94;;;11.90;100.00
41654;BME280;68687;52.030;7.110;2024-03-22T08:15:10;100872.75;;;11.91;100.00
41654;BME280;68687;52.030;7.110;2024-03-22T08:17:36;100876.19;;;12.00;100.00
41654;BME280;68687;52.030;7.110;2024-03-22T08:20:02;100883.25;;;11.86;100.00
41654;BME280;68687;52.030;7.110;2024-03-22T08:22:28;100880.16;;;12.04;100.00
41654;BME280;68687;52.030;7.110;2024-03-22T08:24:53;100874.50;;;11.99;100.00
41654;BME280;68687;52.030;7.110;2024-03-22T08:27:21;100871.75;;;11.92;100.00
41654;BME280;68687;52.030;7.110;2024-03-22T08:29:46;100861.66;;;11.80;100.00
41654;BME280;68687;52.030;7.110;2024-03-22T08:32:11;100855.72;;;11.84;100.00
41654;BME280;68687;52.030;7.110;2024-03-22T08:34:37;100860.88;;;12.00;100.00
41654;BME280;68687;52.030;7.110;2024-03-22T08:37:02;100855.09;;;11.74;100.00
41654;BME280;68687;52.030;7.110;2024-03-22T08:39:29;100846.00;;;11.75;100.00
41654;BME280;68687;52.030;7.110;2024-03-22T08:41:54;100846.06;;;11.90;100.00
41654;BME280;68687;52.030;7.110;2024-03-22T08:44:20;100846.69;;;12.06;100.00
41654;BME280;68687;52.030;7.110;2024-03-22T08:46:45;100841.59;;;11.97;100.00
41654;BME280;68687;52.030;7.110;2024-03-22T08:49:11;100840.09;;;11.94;100.00
41654;BME280;68687;52.030;7.110;2024-03-22T08:51:37;100839.09;;;11.95;100.00
41654;BME280;68687;52.030;7.110;2024-03-22T08:54:02;100831.13;;;11.87;100.00
41654;BME280;68687;52.030;7.110;2024-03-22T08:56:29;100837.31;;;12.02;100.00
41654;BME280;68687;52.030;7.110;2024-03-22T08:58:54;100835.56;;;11.95;100.00
41654;BME280;68687;52.030;7.110;2024-03-22T09:01:20;100832.94;;;12.16;100.00
41654;BME280;68687;52.030;7.110;2024-03-22T09:03:46;100830.47;;;12.36;100.00
41654;BME280;68687;52.030;7.110;2024-03-22T09:06:14;100839.97;;;12.53;100.00
41654;BME280;68687;52.030;7.110;2024-03-22T09:08:40;100848.44;;;12.50;100.00
41654;BME280;68687;52.030;7.110;2024-03-22T09:11:05;100829.94;;;12.26;100.00
41654;BME280;68687;52.030;7.110;2024-03-22T09:13:31;100844.03;;;12.28;100.00
41654;BME280;68687;52.030;7.110;2024-03-22T09:15:58;100839.72;;;12.12;100.00
41654;BME280;68687;52.030;7.110;2024-03-22T09:18:24;100836.63;;;12.51;100.00
41654;BME280;68687;52.030;7.110;2024-03-22T09:20:49;100831.22;;;12.66;100.00
41654;BME280;68687;52.030;7.110;2024-03-22T09:23:14;100836.31;;;12.40;100.00
41654;BME280;68687;52.030;7.110;2024-03-22T09:25:40;100835.50;;;12.24;100.00
41654;BME280;68687;52.030;7.110;2024-03-22T09:28:05;100836.16;;;12.26;100.00
41654;BME280;68687;52.030;7.110;2024-03-22T09:30:30;100837.38;;;12.24;100.00
41654;BME280;68687;52.030;7.110;2024-03-22T09:32:56;100831.38;;;12.43;100.00
41654;BME280;68687;52.030;7.110;2024-03-22T09:35:21;100846.53;;;12.29;100.00
41654;BME280;68687;52.030;7.110;2024-03-22T09:37:46;100830.69;;;12.34;100.00
41654;BME280;68687;52.030;7.110;2024-03-22T09:40:12;100828.88;;;12.05;100.00
41654;BME280;68687;52.030;7.110;2024-03-22T09:42:38;100834.06;;;12.07;100.00
41654;BME280;68687;52.030;7.110;2024-03-22T09:45:08;100835.56;;;12.10;100.00
41654;BME280;68687;52.030;7.110;2024-03-22T09:47:33;100839.09;;;11.95;100.00
41654;BME280;68687;52.030;7.110;2024-03-22T09:50:01;100829.59;;;11.99;100.00
41654;BME280;68687;52.030;7.110;2024-03-22T09:52:28;100821.50;;;11.78;100.00
41654;BME280;68687;52.030;7.110;2024-03-22T09:54:53;100823.84;;;12.02;100.00
41654;BME280;68687;52.030;7.110;2024-03-22T09:57:20;100830.06;;;12.18;100.00
41654;BME280;68687;52.030;7.110;2024-03-22T09:59:46;100828.06;;;11.90;100.00
41654;BME280;68687;52.030;7.110;2024-03-22T10:02:13;100834.03;;;12.22;100.00
41654;BME280;68687;52.030;7.110;2024-03-22T10:04:41;100831.56;;;12.05;100.00
41654;BME280;68687;52.030;7.110;2024-03-22T10:07:07;100826.00;;;12.07;100.00
41654;BME280;68687;52.030;7.110;2024-03-22T10:09:33;100822.94;;;11.95;100.00
41654;BME280;68687;52.030;7.110;2024-03-22T10:11:59;100830.63;;;12.13;100.00
41654;BME280;68687;52.030;7.110;2024-03-22T10:14:24;100823.00;;;12.02;100.00
41654;BME280;68687;52.030;7.110;2024-03-22T10:16:53;100818.47;;;11.73;100.00
41654;BME280;68687;52.030;7.110;2024-03-22T10:19:22;100817.81;;;12.00;100.00
41654;BME280;68687;52.030;7.110;2024-03-22T10:22:02;100821.13;;;11.81;100.00
41654;BME280;68687;52.030;7.110;2024-03-22T10:24:28;100825.66;;;11.81;100.00
41654;BME280;68687;52.030;7.110;2024-03-22T10:26:54;100836.47;;;11.72;100.00
41654;BME280;68687;52.030;7.110;2024-03-22T10:29:20;100824.19;;;11.78;100.00
41654;BME280;68687;52.030;7.110;2024-03-22T10:31:46;100820.59;;;11.77;100.00
41654;BME280;68687;52.030;7.110;2024-03-22T10:34:13;100822.28;;;11.64;100.00
41654;BME280;68687;52.030;7.110;2024-03-22T10:36:38;100820.13;;;11.44;100.00
41654;BME280;68687;52.030;7.110;2024-03-22T10:39:05;100823.41;;;11.55;100.00
41654;BME280;68687;52.030;7.110;2024-03-22T10:41:31;100821.63;;;11.62;100.00
41654;BME280;68687;52.030;7.110;2024-03-22T10:43:57;100829.03;;;11.45;100.00
41654;BME280;68687;52.030;7.110;2024-03-22T10:46:29;100824.88;;;11.42;100.00
41654;BME280;68687;52.030;7.110;2024-03-22T10:48:55;100822.38;;;11.26;100.00
41654;BME280;68687;52.030;7.110;2024-03-22T10:51:23;100820.25;;;11.51;100.00
41654;BME280;68687;52.030;7.110;2024-03-22T10:53:51;100815.16;;;11.56;100.00
41654;BME280;68687;52.030;7.110;2024-03-22T10:56:18;100822.00;;;11.59;100.00
41654;BME280;68687;52.030;7.110;2024-03-22T10:58:43;100821.44;;;11.63;100.00
41654;BME280;68687;52.030;7.110;2024-03-22T11:01:26;100816.44;;;11.60;100.00
41654;BME280;68687;52.030;7.110;2024-03-22T11:04:02;100817.94;;;11.63;100.00
41654;BME280;68687;52.030;7.110;2024-03-22T11:06:30;100810.28;;;11.22;100.00
41654;BME280;68687;52.030;7.110;2024-03-22T11:08:59;100815.13;;;11.41;100.00
41654;BME280;68687;52.030;7.110;2024-03-22T11:11:28;100814.31;;;11.56;100.00
41654;BME280;68687;52.030;7.110;2024-03-22T11:13:53;100811.78;;;11.39;100.00
41654;BME280;68687;52.030;7.110;2024-03-22T11:16:19;100816.63;;;11.29;100.00
41654;BME280;68687;52.030;7.110;2024-03-22T11:18:45;100804.97;;;11.52;100.00
41654;BME280;68687;52.030;7.110;2024-03-22T11:21:11;100810.50;;;11.50;100.00
41654;BME280;68687;52.030;7.110;2024-03-22T11:23:38;100810.69;;;11.49;100.00
41654;BME280;68687;52.030;7.110;2024-03-22T11:26:03;100809.38;;;11.44;100.00
41654;BME280;68687;52.030;7.110;2024-03-22T11:28:30;100802.53;;;11.27;100.00
41654;BME280;68687;52.030;7.110;2024-03-22T11:30:55;100792.50;;;11.06;100.00
41654;BME280;68687;52.030;7.110;2024-03-22T11:33:21;100800.59;;;11.36;100.00
41654;BME280;68687;52.030;7.110;2024-03-22T11:35:46;100796.16;;;10.91;100.00
41654;BME280;68687;52.030;7.110;2024-03-22T11:38:11;100790.63;;;11.07;100.00
41654;BME280;68687;52.030;7.110;2024-03-22T11:40:37;100793.41;;;10.99;100.00
41654;BME280;68687;52.030;7.110;2024-03-22T11:43:03;100794.28;;;11.29;100.00
41654;BME280;68687;52.030;7.110;2024-03-22T11:45:30;100795.13;;;11.29;100.00
41654;BME280;68687;52.030;7.110;2024-03-22T11:48:01;100796.59;;;11.32;100.00
41654;BME280;68687;52.030;7.110;2024-03-22T11:50:27;100791.03;;;11.33;100.00
41654;BME280;68687;52.030;7.110;2024-03-22T11:52:52;100783.13;;;11.17;100.00
41654;BME280;68687;52.030;7.110;2024-03-22T11:55:18;100794.25;;;10.99;100.00
41654;BME280;68687;52.030;7.110;2024-03-22T11:57:50;100788.59;;;11.09;100.00
41654;BME280;68687;52.030;7.110;2024-03-22T12:00:18;100788.31;;;11.04;100.00
41654;BME280;68687;52.030;7.110;2024-03-22T12:02:44;100784.63;;;11.20;100.00
41654;BME280;68687;52.030;7.110;2024-03-22T12:05:10;100781.13;;;10.81;100.00
41654;BME280;68687;52.030;7.110;2024-03-22T12:07:36;100769.50;;;11.04;100.00
41654;BME280;68687;52.030;7.110;2024-03-22T12:10:02;100776.56;;;11.05;100.00
41654;BME280;68687;52.030;7.110;2024-03-22T12:12:28;100774.47;;;10.77;100.00
41654;BME280;68687;52.030;7.110;2024-03-22T12:14:54;100773.03;;;11.04;100.00
41654;BME280;68687;52.030;7.110;2024-03-22T12:17:19;100762.75;;;11.08;100.00
41654;BME280;68687;52.030;7.110;2024-03-22T12:19:45;100761.38;;;11.12;100.00
41654;BME280;68687;52.030;7.110;2024-03-22T12:22:10;100770.59;;;10.95;100.00
41654;BME280;68687;52.030;7.110;2024-03-22T12:24:36;100759.84;;;10.95;100.00
41654;BME280;68687;52.030;7.110;2024-03-22T12:27:02;100753.00;;;10.92;100.00
41654;BME280;68687;52.030;7.110;2024-03-22T12:29:27;100758.25;;;10.86;100.00
41654;BME280;68687;52.030;7.110;2024-03-22T12:31:52;100755.56;;;10.86;100.00
41654;BME280;68687;52.030;7.110;2024-03-22T12:34:18;100749.03;;;11.03;100.00